Suipacha, Argentina
Current Conditions -  °F | °C
As of 12:00 PM on Wednesday 22 Oct 2014 (Local Time) from SAEZ Reporting Station
Clear Clear  
Wind Chill: 29°   Ceiling: Unl
Heat Index: 29°   Visibility: 6mi
Dew Point: 13°   Wind: 14mph
Humidity: 37%   Direction: 360°N
Pressure: 30.03"   Gusts: NA
Location:  34.75°S, 59.68°W
Report Text: SAEZ 221500Z 36012KT 300V040 CAVOK 29/13 Q1017
Loading
Personal Weather Stations






























Interactive Weather Map
Tropical Storm Tracking
New forecast layout! Learn more

10-Day Weather Forecast

Advertisements
Track Severe Weather on mobile